sensor_id;sensor_type;location;lat;lon;timestamp;P1;durP1;ratioP1;P2;durP2;ratioP2
40058;SDS011;25763;49.972;8.568;2024-03-23T00:51:31;36.08;;;34.10;;
40058;SDS011;25763;49.972;8.568;2024-03-23T00:53:56;37.45;;;35.47;;
40058;SDS011;25763;49.972;8.568;2024-03-23T00:56:22;39.63;;;37.53;;
40058;SDS011;25763;49.972;8.568;2024-03-23T00:58:47;41.80;;;39.63;;
40058;SDS011;25763;49.972;8.568;2024-03-23T01:01:12;39.65;;;37.53;;
40058;SDS011;25763;49.972;8.568;2024-03-23T01:03:38;39.97;;;37.90;;
40058;SDS011;25763;49.972;8.568;2024-03-23T01:06:03;40.72;;;38.53;;
40058;SDS011;25763;49.972;8.568;2024-03-23T01:08:29;42.72;;;40.53;;
40058;SDS011;25763;49.972;8.568;2024-03-23T01:10:58;42.38;;;40.17;;
40058;SDS011;25763;49.972;8.568;2024-03-23T01:13:24;40.40;;;38.28;;
40058;SDS011;25763;49.972;8.568;2024-03-23T01:15:50;39.63;;;37.58;;
40058;SDS011;25763;49.972;8.568;2024-03-23T01:18:16;39.03;;;37.00;;
40058;SDS011;25763;49.972;8.568;2024-03-23T01:20:42;38.17;;;35.85;;
40058;SDS011;25763;49.972;8.568;2024-03-23T01:23:08;39.30;;;37.10;;
40058;SDS011;25763;49.972;8.568;2024-03-23T01:25:33;40.30;;;38.10;;
40058;SDS011;25763;49.972;8.568;2024-03-23T01:27:58;42.33;;;40.03;;
40058;SDS011;25763;49.972;8.568;2024-03-23T01:30:24;41.15;;;39.05;;
40058;SDS011;25763;49.972;8.568;2024-03-23T01:32:49;41.72;;;39.53;;
40058;SDS011;25763;49.972;8.568;2024-03-23T01:35:14;42.70;;;40.40;;
40058;SDS011;25763;49.972;8.568;2024-03-23T01:37:40;43.88;;;41.58;;
40058;SDS011;25763;49.972;8.568;2024-03-23T01:40:05;41.78;;;39.58;;
40058;SDS011;25763;49.972;8.568;2024-03-23T01:42:31;46.75;;;44.25;;
40058;SDS011;25763;49.972;8.568;2024-03-23T01:44:57;44.30;;;41.85;;
40058;SDS011;25763;49.972;8.568;2024-03-23T01:47:23;45.85;;;41.95;;
40058;SDS011;25763;49.972;8.568;2024-03-23T01:49:48;45.63;;;43.30;;
40058;SDS011;25763;49.972;8.568;2024-03-23T01:52:13;47.95;;;45.35;;
40058;SDS011;25763;49.972;8.568;2024-03-23T01:54:39;48.67;;;46.03;;
40058;SDS011;25763;49.972;8.568;2024-03-23T01:57:06;50.28;;;47.60;;
40058;SDS011;25763;49.972;8.568;2024-03-23T01:59:31;50.20;;;47.53;;
40058;SDS011;25763;49.972;8.568;2024-03-23T02:01:57;50.10;;;47.15;;
40058;SDS011;25763;49.972;8.568;2024-03-23T02:04:22;48.85;;;46.25;;
40058;SDS011;25763;49.972;8.568;2024-03-23T02:06:47;48.03;;;45.42;;
40058;SDS011;25763;49.972;8.568;2024-03-23T02:09:13;46.90;;;44.30;;
40058;SDS011;25763;49.972;8.568;2024-03-23T02:11:38;45.35;;;42.95;;
40058;SDS011;25763;49.972;8.568;2024-03-23T02:14:04;48.33;;;45.78;;
40058;SDS011;25763;49.972;8.568;2024-03-23T02:16:29;44.38;;;42.08;;
40058;SDS011;25763;49.972;8.568;2024-03-23T02:18:54;43.83;;;41.33;;
40058;SDS011;25763;49.972;8.568;2024-03-23T02:21:20;41.97;;;39.65;;
40058;SDS011;25763;49.972;8.568;2024-03-23T02:23:45;44.40;;;41.95;;
40058;SDS011;25763;49.972;8.568;2024-03-23T02:26:10;42.97;;;40.67;;
40058;SDS011;25763;49.972;8.568;2024-03-23T02:28:36;41.13;;;38.92;;
40058;SDS011;25763;49.972;8.568;2024-03-23T02:31:01;41.33;;;39.05;;
40058;SDS011;25763;49.972;8.568;2024-03-23T02:33:27;45.65;;;43.25;;
40058;SDS011;25763;49.972;8.568;2024-03-23T02:35:55;43.83;;;41.42;;
40058;SDS011;25763;49.972;8.568;2024-03-23T02:38:21;42.83;;;40.42;;
40058;SDS011;25763;49.972;8.568;2024-03-23T02:40:46;40.25;;;38.03;;
40058;SDS011;25763;49.972;8.568;2024-03-23T02:43:12;42.33;;;40.03;;
40058;SDS011;25763;49.972;8.568;2024-03-23T02:45:37;42.38;;;40.05;;
40058;SDS011;25763;49.972;8.568;2024-03-23T02:48:02;42.38;;;40.08;;
40058;SDS011;25763;49.972;8.568;2024-03-23T02:50:28;38.92;;;36.83;;
40058;SDS011;25763;49.972;8.568;2024-03-23T02:52:54;38.90;;;36.83;;
40058;SDS011;25763;49.972;8.568;2024-03-23T02:55:19;39.35;;;37.25;;
40058;SDS011;25763;49.972;8.568;2024-03-23T02:57:44;41.65;;;39.47;;
40058;SDS011;25763;49.972;8.568;2024-03-23T03:00:10;40.97;;;37.00;;
40058;SDS011;25763;49.972;8.568;2024-03-23T03:02:36;38.95;;;36.80;;
40058;SDS011;25763;49.972;8.568;2024-03-23T03:05:02;41.03;;;38.60;;
40058;SDS011;25763;49.972;8.568;2024-03-23T03:07:29;37.35;;;35.33;;
40058;SDS011;25763;49.972;8.568;2024-03-23T03:09:55;37.83;;;35.83;;
40058;SDS011;25763;49.972;8.568;2024-03-23T03:12:20;36.95;;;34.85;;
40058;SDS011;25763;49.972;8.568;2024-03-23T03:14:46;33.97;;;32.17;;
40058;SDS011;25763;49.972;8.568;2024-03-23T03:17:11;33.97;;;32.10;;
40058;SDS011;25763;49.972;8.568;2024-03-23T03:19:36;32.65;;;30.88;;
40058;SDS011;25763;49.972;8.568;2024-03-23T03:22:02;35.83;;;33.67;;
40058;SDS011;25763;49.972;8.568;2024-03-23T03:24:29;34.70;;;32.80;;
40058;SDS011;25763;49.972;8.568;2024-03-23T03:26:54;34.50;;;32.60;;
40058;SDS011;25763;49.972;8.568;2024-03-23T03:29:20;34.33;;;32.30;;
40058;SDS011;25763;49.972;8.568;2024-03-23T03:31:45;32.85;;;31.00;;
40058;SDS011;25763;49.972;8.568;2024-03-23T03:34:10;34.97;;;32.85;;
40058;SDS011;25763;49.972;8.568;2024-03-23T03:36:35;32.75;;;30.92;;
40058;SDS011;25763;49.972;8.568;2024-03-23T03:39:01;35.88;;;33.88;;
40058;SDS011;25763;49.972;8.568;2024-03-23T03:41:28;35.83;;;33.50;;
40058;SDS011;25763;49.972;8.568;2024-03-23T03:43:53;34.63;;;32.63;;
40058;SDS011;25763;49.972;8.568;2024-03-23T03:46:20;36.28;;;34.28;;
40058;SDS011;25763;49.972;8.568;2024-03-23T03:48:45;34.55;;;32.65;;
40058;SDS011;25763;49.972;8.568;2024-03-23T03:51:12;34.67;;;32.80;;
40058;SDS011;25763;49.972;8.568;2024-03-23T03:53:38;34.78;;;32.85;;
40058;SDS011;25763;49.972;8.568;2024-03-23T03:56:03;36.15;;;33.90;;
40058;SDS011;25763;49.972;8.568;2024-03-23T03:58:29;37.33;;;35.33;;
40058;SDS011;25763;49.972;8.568;2024-03-23T04:00:54;37.40;;;35.40;;
40058;SDS011;25763;49.972;8.568;2024-03-23T04:03:19;37.10;;;35.10;;
40058;SDS011;25763;49.972;8.568;2024-03-23T04:05:52;36.70;;;34.70;;
40058;SDS011;25763;49.972;8.568;2024-03-23T04:08:18;37.28;;;35.17;;
40058;SDS011;25763;49.972;8.568;2024-03-23T04:10:44;40.22;;;38.10;;
40058;SDS011;25763;49.972;8.568;2024-03-23T04:13:10;39.45;;;37.33;;
40058;SDS011;25763;49.972;8.568;2024-03-23T04:15:36;38.85;;;36.45;;
40058;SDS011;25763;49.972;8.568;2024-03-23T04:18:02;44.22;;;41.63;;
40058;SDS011;25763;49.972;8.568;2024-03-23T04:20:27;51.17;;;48.42;;
40058;SDS011;25763;49.972;8.568;2024-03-23T04:22:52;54.25;;;51.22;;
40058;SDS011;25763;49.972;8.568;2024-03-23T04:25:18;52.15;;;49.25;;
40058;SDS011;25763;49.972;8.568;2024-03-23T04:27:44;55.70;;;52.67;;
40058;SDS011;25763;49.972;8.568;2024-03-23T04:30:10;57.03;;;53.88;;
40058;SDS011;25763;49.972;8.568;2024-03-23T04:32:39;77.28;;;73.13;;
40058;SDS011;25763;49.972;8.568;2024-03-23T04:35:05;60.35;;;57.22;;
40058;SDS011;25763;49.972;8.568;2024-03-23T04:37:31;53.42;;;50.63;;
40058;SDS011;25763;49.972;8.568;2024-03-23T04:39:59;57.85;;;54.75;;
40058;SDS011;25763;49.972;8.568;2024-03-23T04:42:26;55.53;;;52.72;;
40058;SDS011;25763;49.972;8.568;2024-03-23T04:44:52;58.15;;;55.17;;
40058;SDS011;25763;49.972;8.568;2024-03-23T04:47:18;57.58;;;54.58;;
40058;SDS011;25763;49.972;8.568;2024-03-23T04:49:43;58.33;;;55.17;;
40058;SDS011;25763;49.972;8.568;2024-03-23T04:52:08;66.30;;;62.92;;
40058;SDS011;25763;49.972;8.568;2024-03-23T04:54:34;66.38;;;63.05;;
40058;SDS011;25763;49.972;8.568;2024-03-23T04:56:59;66.05;;;62.75;;
40058;SDS011;25763;49.972;8.568;2024-03-23T04:59:25;67.72;;;64.32;;
40058;SDS011;25763;49.972;8.568;2024-03-23T05:01:50;68.28;;;64.88;;
40058;SDS011;25763;49.972;8.568;2024-03-23T05:04:15;66.78;;;63.38;;
40058;SDS011;25763;49.972;8.568;2024-03-23T05:06:41;67.53;;;63.97;;
40058;SDS011;25763;49.972;8.568;2024-03-23T05:09:06;68.28;;;64.88;;
40058;SDS011;25763;49.972;8.568;2024-03-23T05:11:33;66.10;;;62.80;;
40058;SDS011;25763;49.972;8.568;2024-03-23T05:13:59;66.28;;;62.95;;
40058;SDS011;25763;49.972;8.568;2024-03-23T05:16:25;64.45;;;61.17;;
40058;SDS011;25763;49.972;8.568;2024-03-23T05:18:51;63.42;;;60.22;;
40058;SDS011;25763;49.972;8.568;2024-03-23T05:21:16;67.45;;;64.10;;
40058;SDS011;25763;49.972;8.568;2024-03-23T05:23:42;66.90;;;63.58;;
40058;SDS011;25763;49.972;8.568;2024-03-23T05:26:08;63.13;;;59.95;;
40058;SDS011;25763;49.972;8.568;2024-03-23T05:28:34;68.50;;;64.97;;
40058;SDS011;25763;49.972;8.568;2024-03-23T05:31:00;69.53;;;66.05;;
40058;SDS011;25763;49.972;8.568;2024-03-23T05:33:25;66.65;;;63.30;;
40058;SDS011;25763;49.972;8.568;2024-03-23T05:35:57;70.20;;;66.70;;
40058;SDS011;25763;49.972;8.568;2024-03-23T05:38:22;68.32;;;64.93;;
40058;SDS011;25763;49.972;8.568;2024-03-23T05:40:58;66.90;;;63.58;;
40058;SDS011;25763;49.972;8.568;2024-03-23T05:43:24;61.33;;;58.28;;
40058;SDS011;25763;49.972;8.568;2024-03-23T05:45:53;66.68;;;63.28;;
40058;SDS011;25763;49.972;8.568;2024-03-23T05:48:22;65.40;;;62.10;;
40058;SDS011;25763;49.972;8.568;2024-03-23T05:50:48;64.55;;;61.25;;
40058;SDS011;25763;49.972;8.568;2024-03-23T05:53:17;60.17;;;57.15;;
40058;SDS011;25763;49.972;8.568;2024-03-23T05:55:43;62.90;;;59.75;;
40058;SDS011;25763;49.972;8.568;2024-03-23T05:58:08;61.58;;;58.38;;
40058;SDS011;25763;49.972;8.568;2024-03-23T06:00:34;59.17;;;56.17;;
40058;SDS011;25763;49.972;8.568;2024-03-23T06:02:59;55.58;;;52.78;;
40058;SDS011;25763;49.972;8.568;2024-03-23T06:05:25;56.95;;;54.05;;
40058;SDS011;25763;49.972;8.568;2024-03-23T06:07:50;58.47;;;55.50;;
40058;SDS011;25763;49.972;8.568;2024-03-23T06:10:15;55.83;;;53.03;;
40058;SDS011;25763;49.972;8.568;2024-03-23T06:12:41;47.30;;;44.90;;
40058;SDS011;25763;49.972;8.568;2024-03-23T06:15:06;38.67;;;36.67;;
40058;SDS011;25763;49.972;8.568;2024-03-23T06:17:35;36.28;;;34.40;;
40058;SDS011;25763;49.972;8.568;2024-03-23T06:20:04;29.92;;;28.38;;
40058;SDS011;25763;49.972;8.568;2024-03-23T06:22:31;29.70;;;28.15;;
40058;SDS011;25763;49.972;8.568;2024-03-23T06:24:56;29.70;;;28.15;;
40058;SDS011;25763;49.972;8.568;2024-03-23T06:27:22;28.27;;;26.77;;
40058;SDS011;25763;49.972;8.568;2024-03-23T06:29:47;25.75;;;24.40;;
40058;SDS011;25763;49.972;8.568;2024-03-23T06:32:12;21.67;;;20.48;;
40058;SDS011;25763;49.972;8.568;2024-03-23T06:34:40;24.15;;;22.85;;
40058;SDS011;25763;49.972;8.568;2024-03-23T06:37:06;24.90;;;23.60;;
40058;SDS011;25763;49.972;8.568;2024-03-23T06:39:32;25.13;;;23.83;;
40058;SDS011;25763;49.972;8.568;2024-03-23T06:41:57;22.90;;;21.70;;
40058;SDS011;25763;49.972;8.568;2024-03-23T06:44:23;22.65;;;21.45;;
40058;SDS011;25763;49.972;8.568;2024-03-23T06:46:48;22.70;;;21.50;;
40058;SDS011;25763;49.972;8.568;2024-03-23T06:49:14;25.30;;;23.98;;
40058;SDS011;25763;49.972;8.568;2024-03-23T06:51:40;24.38;;;23.08;;
40058;SDS011;25763;49.972;8.568;2024-03-23T06:54:06;24.30;;;23.00;;
40058;SDS011;25763;49.972;8.568;2024-03-23T06:56:31;22.70;;;21.50;;
40058;SDS011;25763;49.972;8.568;2024-03-23T06:58:57;24.50;;;23.20;;
40058;SDS011;25763;49.972;8.568;2024-03-23T07:01:22;23.88;;;22.58;;
40058;SDS011;25763;49.972;8.568;2024-03-23T07:03:48;20.60;;;19.50;;
40058;SDS011;25763;49.972;8.568;2024-03-23T07:06:13;19.13;;;18.13;;
40058;SDS011;25763;49.972;8.568;2024-03-23T07:08:38;20.35;;;19.25;;
40058;SDS011;25763;49.972;8.568;2024-03-23T07:11:04;19.30;;;18.30;;
40058;SDS011;25763;49.972;8.568;2024-03-23T07:13:30;21.30;;;19.77;;
40058;SDS011;25763;49.972;8.568;2024-03-23T07:15:55;20.15;;;19.05;;
40058;SDS011;25763;49.972;8.568;2024-03-23T07:18:21;20.55;;;19.45;;
40058;SDS011;25763;49.972;8.568;2024-03-23T07:20:53;21.75;;;20.58;;
40058;SDS011;25763;49.972;8.568;2024-03-23T07:23:19;21.92;;;20.73;;
40058;SDS011;25763;49.972;8.568;2024-03-23T07:25:44;22.10;;;20.90;;
40058;SDS011;25763;49.972;8.568;2024-03-23T07:28:09;21.95;;;20.75;;
40058;SDS011;25763;49.972;8.568;2024-03-23T07:30:35;25.42;;;23.92;;
40058;SDS011;25763;49.972;8.568;2024-03-23T07:33:00;24.83;;;23.48;;
40058;SDS011;25763;49.972;8.568;2024-03-23T07:35:26;26.50;;;25.10;;
40058;SDS011;25763;49.972;8.568;2024-03-23T07:37:51;27.15;;;25.55;;
40058;SDS011;25763;49.972;8.568;2024-03-23T07:40:16;27.75;;;26.30;;
40058;SDS011;25763;49.972;8.568;2024-03-23T07:42:41;26.92;;;25.52;;
40058;SDS011;25763;49.972;8.568;2024-03-23T07:45:07;27.13;;;25.63;;
40058;SDS011;25763;49.972;8.568;2024-03-23T07:47:34;27.08;;;25.67;;
40058;SDS011;25763;49.972;8.568;2024-03-23T07:49:59;26.80;;;25.40;;
40058;SDS011;25763;49.972;8.568;2024-03-23T07:52:27;30.00;;;28.20;;
40058;SDS011;25763;49.972;8.568;2024-03-23T07:54:53;30.10;;;28.52;;
40058;SDS011;25763;49.972;8.568;2024-03-23T07:57:19;30.98;;;29.38;;
40058;SDS011;25763;49.972;8.568;2024-03-23T07:59:44;34.47;;;32.67;;
40058;SDS011;25763;49.972;8.568;2024-03-23T08:02:09;32.58;;;30.90;;
40058;SDS011;25763;49.972;8.568;2024-03-23T08:04:35;33.95;;;32.15;;
40058;SDS011;25763;49.972;8.568;2024-03-23T08:07:01;33.95;;;32.15;;
40058;SDS011;25763;49.972;8.568;2024-03-23T08:09:26;33.97;;;32.17;;
40058;SDS011;25763;49.972;8.568;2024-03-23T08:11:51;31.98;;;30.17;;
40058;SDS011;25763;49.972;8.568;2024-03-23T08:14:17;34.25;;;32.35;;
40058;SDS011;25763;49.972;8.568;2024-03-23T08:16:42;36.05;;;33.92;;
40058;SDS011;25763;49.972;8.568;2024-03-23T08:19:13;32.28;;;30.58;;
40058;SDS011;25763;49.972;8.568;2024-03-23T08:21:39;31.38;;;29.77;;
40058;SDS011;25763;49.972;8.568;2024-03-23T08:24:04;35.20;;;33.15;;
40058;SDS011;25763;49.972;8.568;2024-03-23T08:26:30;34.80;;;32.63;;
40058;SDS011;25763;49.972;8.568;2024-03-23T08:28:55;33.53;;;31.67;;
40058;SDS011;25763;49.972;8.568;2024-03-23T08:31:21;32.67;;;30.90;;
40058;SDS011;25763;49.972;8.568;2024-03-23T08:33:46;33.65;;;31.90;;
40058;SDS011;25763;49.972;8.568;2024-03-23T08:36:12;34.63;;;32.85;;
40058;SDS011;25763;49.972;8.568;2024-03-23T08:38:39;33.38;;;31.67;;
40058;SDS011;25763;49.972;8.568;2024-03-23T08:41:05;32.55;;;30.80;;
40058;SDS011;25763;49.972;8.568;2024-03-23T08:43:32;34.25;;;32.45;;
40058;SDS011;25763;49.972;8.568;2024-03-23T08:46:04;33.05;;;31.35;;
40058;SDS011;25763;49.972;8.568;2024-03-23T08:48:30;33.92;;;31.98;;
40058;SDS011;25763;49.972;8.568;2024-03-23T08:50:59;36.75;;;34.80;;
40058;SDS011;25763;49.972;8.568;2024-03-23T08:53:27;34.63;;;32.85;;
40058;SDS011;25763;49.972;8.568;2024-03-23T08:55:54;36.08;;;34.08;;
40058;SDS011;25763;49.972;8.568;2024-03-23T08:58:19;38.03;;;35.83;;
40058;SDS011;25763;49.972;8.568;2024-03-23T09:00:45;43.22;;;41.00;;
40058;SDS011;25763;49.972;8.568;2024-03-23T09:03:11;42.22;;;40.05;;
40058;SDS011;25763;49.972;8.568;2024-03-23T09:05:40;55.65;;;52.83;;
40058;SDS011;25763;49.972;8.568;2024-03-23T09:08:05;28.88;;;26.67;;
40058;SDS011;25763;49.972;8.568;2024-03-23T09:10:31;24.75;;;23.42;;
40058;SDS011;25763;49.972;8.568;2024-03-23T09:12:59;28.15;;;26.52;;
40058;SDS011;25763;49.972;8.568;2024-03-23T09:15:25;28.50;;;26.88;;
40058;SDS011;25763;49.972;8.568;2024-03-23T09:17:50;25.38;;;23.88;;
40058;SDS011;25763;49.972;8.568;2024-03-23T09:20:15;33.17;;;31.17;;
40058;SDS011;25763;49.972;8.568;2024-03-23T09:22:41;24.95;;;23.65;;
40058;SDS011;25763;49.972;8.568;2024-03-23T09:25:06;24.38;;;23.05;;
40058;SDS011;25763;49.972;8.568;2024-03-23T09:27:32;27.83;;;26.33;;
40058;SDS011;25763;49.972;8.568;2024-03-23T09:29:57;52.55;;;49.80;;
40058;SDS011;25763;49.972;8.568;2024-03-23T09:32:22;37.03;;;35.13;;
40058;SDS011;25763;49.972;8.568;2024-03-23T09:34:48;40.80;;;38.63;;
40058;SDS011;25763;49.972;8.568;2024-03-23T09:37:13;57.92;;;55.00;;
40058;SDS011;25763;49.972;8.568;2024-03-23T09:39:38;44.03;;;41.78;;
40058;SDS011;25763;49.972;8.568;2024-03-23T09:42:04;89.30;;;84.88;;
40058;SDS011;25763;49.972;8.568;2024-03-23T09:44:31;122.70;;;116.55;;
40058;SDS011;25763;49.972;8.568;2024-03-23T09:46:56;135.20;;;128.48;;
40058;SDS011;25763;49.972;8.568;2024-03-23T09:49:22;144.70;;;137.07;;
40058;SDS011;25763;49.972;8.568;2024-03-23T09:51:47;34.88;;;33.05;;
40058;SDS011;25763;49.972;8.568;2024-03-23T09:54:12;43.28;;;40.45;;
40058;SDS011;25763;49.972;8.568;2024-03-23T09:56:38;38.83;;;36.22;;
40058;SDS011;25763;49.972;8.568;2024-03-23T09:59:03;38.10;;;35.97;;
40058;SDS011;25763;49.972;8.568;2024-03-23T10:01:29;38.40;;;36.42;;
40058;SDS011;25763;49.972;8.568;2024-03-23T10:03:55;34.30;;;32.50;;
40058;SDS011;25763;49.972;8.568;2024-03-23T10:06:21;41.67;;;39.38;;
40058;SDS011;25763;49.972;8.568;2024-03-23T10:08:47;37.25;;;35.35;;
40058;SDS011;25763;49.972;8.568;2024-03-23T10:11:16;34.28;;;32.47;;
40058;SDS011;25763;49.972;8.568;2024-03-23T10:13:42;32.47;;;30.73;;
40058;SDS011;25763;49.972;8.568;2024-03-23T10:16:09;29.17;;;27.63;;
40058;SDS011;25763;49.972;8.568;2024-03-23T10:18:38;37.63;;;35.60;;
40058;SDS011;25763;49.972;8.568;2024-03-23T10:21:08;30.05;;;28.42;;
40058;SDS011;25763;49.972;8.568;2024-03-23T10:23:36;32.35;;;30.27;;
40058;SDS011;25763;49.972;8.568;2024-03-23T10:26:35;34.92;;;33.13;;
40058;SDS011;25763;49.972;8.568;2024-03-23T10:28:55;75.78;;;71.90;;
40058;SDS011;25763;49.972;8.568;2024-03-23T10:31:26;27.15;;;25.73;;
40058;SDS011;25763;49.972;8.568;2024-03-23T10:33:57;36.33;;;34.38;;
40058;SDS011;25763;49.972;8.568;2024-03-23T10:36:23;36.72;;;34.75;;
40058;SDS011;25763;49.972;8.568;2024-03-23T10:38:51;33.53;;;31.77;;
40058;SDS011;25763;49.972;8.568;2024-03-23T10:41:17;27.80;;;26.30;;
40058;SDS011;25763;49.972;8.568;2024-03-23T10:43:44;45.42;;;42.85;;
40058;SDS011;25763;49.972;8.568;2024-03-23T10:46:11;40.13;;;38.03;;
40058;SDS011;25763;49.972;8.568;2024-03-23T10:48:36;34.58;;;32.70;;
40058;SDS011;25763;49.972;8.568;2024-03-23T10:51:03;32.85;;;31.08;;
40058;SDS011;25763;49.972;8.568;2024-03-23T10:53:29;30.50;;;28.90;;
40058;SDS011;25763;49.972;8.568;2024-03-23T10:55:56;76.45;;;72.00;;
40058;SDS011;25763;49.972;8.568;2024-03-23T10:58:31;78.00;;;74.07;;
40058;SDS011;25763;49.972;8.568;2024-03-23T11:01:02;72.50;;;68.80;;
40058;SDS011;25763;49.972;8.568;2024-03-23T11:06:04;32.67;;;30.80;;
40058;SDS011;25763;49.972;8.568;2024-03-23T11:08:30;25.65;;;24.25;;
40058;SDS011;25763;49.972;8.568;2024-03-23T11:11:22;24.98;;;23.48;;
40058;SDS011;25763;49.972;8.568;2024-03-23T11:13:53;22.25;;;21.05;;
40058;SDS011;25763;49.972;8.568;2024-03-23T11:16:26;21.13;;;20.02;;
40058;SDS011;25763;49.972;8.568;2024-03-23T11:22:03;20.80;;;19.70;;
40058;SDS011;25763;49.972;8.568;2024-03-23T11:24:30;20.75;;;19.65;;
40058;SDS011;25763;49.972;8.568;2024-03-23T11:26:55;21.83;;;20.63;;
40058;SDS011;25763;49.972;8.568;2024-03-23T11:29:21;21.05;;;19.95;;
40058;SDS011;25763;49.972;8.568;2024-03-23T11:31:52;20.15;;;19.05;;
40058;SDS011;25763;49.972;8.568;2024-03-23T11:34:18;22.00;;;20.80;;
40058;SDS011;25763;49.972;8.568;2024-03-23T11:36:44;26.83;;;24.08;;
40058;SDS011;25763;49.972;8.568;2024-03-23T11:39:14;25.05;;;23.65;;
40058;SDS011;25763;49.972;8.568;2024-03-23T11:41:47;20.95;;;19.75;;
40058;SDS011;25763;49.972;8.568;2024-03-23T11:44:19;18.20;;;17.20;;
40058;SDS011;25763;49.972;8.568;2024-03-23T11:46:48;20.58;;;19.48;;
40058;SDS011;25763;49.972;8.568;2024-03-23T11:49:24;18.73;;;17.73;;
40058;SDS011;25763;49.972;8.568;2024-03-23T11:51:51;28.48;;;26.98;;
40058;SDS011;25763;49.972;8.568;2024-03-23T11:54:20;29.83;;;28.27;;
40058;SDS011;25763;49.972;8.568;2024-03-23T11:57:03;40.50;;;38.40;;
40058;SDS011;25763;49.972;8.568;2024-03-23T11:59:36;27.13;;;25.42;;
40058;SDS011;25763;49.972;8.568;2024-03-23T12:04:43;46.03;;;43.67;;
40058;SDS011;25763;49.972;8.568;2024-03-23T12:09:35;45.00;;;42.70;;
40058;SDS011;25763;49.972;8.568;2024-03-23T12:12:10;39.55;;;37.22;;
40058;SDS011;25763;49.972;8.568;2024-03-23T12:14:36;37.75;;;35.65;;
40058;SDS011;25763;49.972;8.568;2024-03-23T12:17:09;41.50;;;39.30;;
40058;SDS011;25763;49.972;8.568;2024-03-23T12:19:38;42.67;;;40.28;;
40058;SDS011;25763;49.972;8.568;2024-03-23T12:22:04;42.65;;;40.45;;
40058;SDS011;25763;49.972;8.568;2024-03-23T12:24:30;47.15;;;44.75;;
40058;SDS011;25763;49.972;8.568;2024-03-23T12:27:00;38.13;;;36.15;;
40058;SDS011;25763;49.972;8.568;2024-03-23T12:29:26;38.97;;;36.95;;
40058;SDS011;25763;49.972;8.568;2024-03-23T12:31:53;39.70;;;37.63;;
40058;SDS011;25763;49.972;8.568;2024-03-23T12:34:18;40.97;;;38.88;;
40058;SDS011;25763;49.972;8.568;2024-03-23T12:36:44;40.90;;;38.80;;
40058;SDS011;25763;49.972;8.568;2024-03-23T12:39:09;39.92;;;37.88;;
40058;SDS011;25763;49.972;8.568;2024-03-23T12:41:34;39.80;;;37.78;;
40058;SDS011;25763;49.972;8.568;2024-03-23T12:44:00;39.30;;;37.25;;
40058;SDS011;25763;49.972;8.568;2024-03-23T12:46:25;78.60;;;74.70;;
40058;SDS011;25763;49.972;8.568;2024-03-23T12:48:50;48.40;;;45.95;;
40058;SDS011;25763;49.972;8.568;2024-03-23T12:51:16;41.15;;;39.05;;
40058;SDS011;25763;49.972;8.568;2024-03-23T12:53:41;39.25;;;37.25;;
40058;SDS011;25763;49.972;8.568;2024-03-23T12:56:06;50.85;;;48.28;;
40058;SDS011;25763;49.972;8.568;2024-03-23T12:58:32;43.33;;;41.13;;
40058;SDS011;25763;49.972;8.568;2024-03-23T13:00:58;34.50;;;32.67;;
40058;SDS011;25763;49.972;8.568;2024-03-23T13:03:23;33.15;;;31.45;;
40058;SDS011;25763;49.972;8.568;2024-03-23T13:05:52;33.20;;;31.40;;
40058;SDS011;25763;49.972;8.568;2024-03-23T13:08:17;35.35;;;33.55;;
40058;SDS011;25763;49.972;8.568;2024-03-23T13:10:42;27.63;;;26.13;;
40058;SDS011;25763;49.972;8.568;2024-03-23T13:13:08;114.70;;;109.00;;
40058;SDS011;25763;49.972;8.568;2024-03-23T13:15:33;80.85;;;76.85;;
40058;SDS011;25763;49.972;8.568;2024-03-23T13:17:58;52.70;;;50.05;;
40058;SDS011;25763;49.972;8.568;2024-03-23T13:20:24;27.50;;;26.05;;
40058;SDS011;25763;49.972;8.568;2024-03-23T13:22:49;27.42;;;26.00;;
40058;SDS011;25763;49.972;8.568;2024-03-23T13:25:17;32.47;;;30.63;;
40058;SDS011;25763;49.972;8.568;2024-03-23T13:27:43;30.75;;;29.15;;
40058;SDS011;25763;49.972;8.568;2024-03-23T13:30:09;32.05;;;30.38;;
40058;SDS011;25763;49.972;8.568;2024-03-23T13:32:35;35.05;;;33.25;;
40058;SDS011;25763;49.972;8.568;2024-03-23T13:35:00;36.30;;;34.40;;
40058;SDS011;25763;49.972;8.568;2024-03-23T13:37:26;37.65;;;35.70;;
40058;SDS011;25763;49.972;8.568;2024-03-23T13:39:51;39.80;;;37.80;;
40058;SDS011;25763;49.972;8.568;2024-03-23T13:42:17;41.85;;;39.75;;
40058;SDS011;25763;49.972;8.568;2024-03-23T13:44:42;40.13;;;38.08;;
40058;SDS011;25763;49.972;8.568;2024-03-23T13:47:08;41.08;;;38.97;;
40058;SDS011;25763;49.972;8.568;2024-03-23T13:49:34;38.78;;;36.78;;
40058;SDS011;25763;49.972;8.568;2024-03-23T13:52:00;43.08;;;40.88;;
40058;SDS011;25763;49.972;8.568;2024-03-23T13:54:26;43.75;;;41.55;;
40058;SDS011;25763;49.972;8.568;2024-03-23T13:56:52;40.58;;;38.50;;
40058;SDS011;25763;49.972;8.568;2024-03-23T13:59:19;41.53;;;39.42;;
40058;SDS011;25763;49.972;8.568;2024-03-23T14:01:45;40.88;;;38.78;;
40058;SDS011;25763;49.972;8.568;2024-03-23T14:04:11;46.22;;;43.83;;
40058;SDS011;25763;49.972;8.568;2024-03-23T14:06:36;42.60;;;40.38;;
40058;SDS011;25763;49.972;8.568;2024-03-23T14:09:02;43.75;;;41.42;;
40058;SDS011;25763;49.972;8.568;2024-03-23T14:11:28;40.45;;;38.38;;
40058;SDS011;25763;49.972;8.568;2024-03-23T14:13:54;37.22;;;35.28;;
40058;SDS011;25763;49.972;8.568;2024-03-23T14:16:19;39.88;;;37.85;;
40058;SDS011;25763;49.972;8.568;2024-03-23T14:18:46;37.25;;;35.35;;
40058;SDS011;25763;49.972;8.568;2024-03-23T14:21:12;40.80;;;38.72;;
40058;SDS011;25763;49.972;8.568;2024-03-23T14:23:37;44.30;;;42.05;;
40058;SDS011;25763;49.972;8.568;2024-03-23T14:26:03;41.50;;;39.40;;
40058;SDS011;25763;49.972;8.568;2024-03-23T14:28:28;39.25;;;37.25;;
40058;SDS011;25763;49.972;8.568;2024-03-23T14:30:55;40.22;;;38.15;;
40058;SDS011;25763;49.972;8.568;2024-03-23T14:33:21;37.05;;;35.15;;
40058;SDS011;25763;49.972;8.568;2024-03-23T14:35:55;40.63;;;38.53;;
40058;SDS011;25763;49.972;8.568;2024-03-23T14:38:24;39.85;;;37.85;;
40058;SDS011;25763;49.972;8.568;2024-03-23T14:40:49;39.53;;;37.13;;
40058;SDS011;25763;49.972;8.568;2024-03-23T14:43:17;43.88;;;41.58;;
40058;SDS011;25763;49.972;8.568;2024-03-23T14:48:41;34.78;;;32.97;;
40058;SDS011;25763;49.972;8.568;2024-03-23T14:51:07;35.60;;;33.72;;
40058;SDS011;25763;49.972;8.568;2024-03-23T14:53:34;37.67;;;35.70;;
40058;SDS011;25763;49.972;8.568;2024-03-23T14:56:01;47.10;;;44.40;;
40058;SDS011;25763;49.972;8.568;2024-03-23T14:58:27;38.22;;;36.28;;
40058;SDS011;25763;49.972;8.568;2024-03-23T15:00:59;39.30;;;37.20;;
40058;SDS011;25763;49.972;8.568;2024-03-23T15:03:25;35.45;;;33.65;;
40058;SDS011;25763;49.972;8.568;2024-03-23T15:05:52;26.13;;;24.73;;
40058;SDS011;25763;49.972;8.568;2024-03-23T15:08:21;19.55;;;18.45;;
40058;SDS011;25763;49.972;8.568;2024-03-23T15:10:46;26.98;;;25.58;;
40058;SDS011;25763;49.972;8.568;2024-03-23T15:13:12;36.10;;;34.25;;
40058;SDS011;25763;49.972;8.568;2024-03-23T15:15:38;30.50;;;28.90;;
40058;SDS011;25763;49.972;8.568;2024-03-23T15:18:05;37.47;;;35.42;;
40058;SDS011;25763;49.972;8.568;2024-03-23T15:20:31;25.35;;;24.05;;